createdAt,value
2018-08-18T00:00:05.034Z,22.60
2018-08-18T00:02:37.078Z,22.60
2018-08-18T00:05:07.009Z,22.50
2018-08-18T00:07:35.261Z,22.50
2018-08-18T00:10:05.191Z,22.50
2018-08-18T00:12:33.428Z,22.50
2018-08-18T00:15:01.623Z,22.40
2018-08-18T00:17:29.875Z,22.40
2018-08-18T00:19:58.079Z,22.40
2018-08-18T00:22:26.414Z,22.40
2018-08-18T00:24:58.464Z,22.30
2018-08-18T00:27:27.311Z,22.30
2018-08-18T00:30:00.974Z,22.30
2018-08-18T00:32:29.664Z,22.30
2018-08-18T00:34:57.833Z,22.30
2018-08-18T00:37:26.322Z,22.40
2018-08-18T00:39:55.321Z,22.40
2018-08-18T00:42:23.706Z,22.40
2018-08-18T00:44:51.921Z,22.40
2018-08-18T00:47:20.138Z,22.40
2018-08-18T00:49:48.410Z,22.40
2018-08-18T00:52:16.630Z,22.30
2018-08-18T00:54:44.850Z,22.30
2018-08-18T00:57:24.993Z,22.30
2018-08-18T00:59:54.658Z,22.40
2018-08-18T01:02:22.938Z,22.30
2018-08-18T01:05:00.290Z,22.30
2018-08-18T01:07:29.597Z,22.30
2018-08-18T01:09:58.286Z,22.20
2018-08-18T01:12:27.375Z,22.20
2018-08-18T01:14:56.147Z,22.20
2018-08-18T01:17:24.661Z,22.20
2018-08-18T01:19:53.614Z,22.20
2018-08-18T01:22:21.821Z,22.30
2018-08-18T01:24:51.496Z,22.30
2018-08-18T01:27:19.766Z,22.20
2018-08-18T01:29:53.191Z,22.20
2018-08-18T01:32:21.404Z,22.20
2018-08-18T01:34:50.657Z,22.10
2018-08-18T01:37:19.584Z,22.20
2018-08-18T01:39:50.202Z,22.20
2018-08-18T01:42:18.398Z,22.20
2018-08-18T01:44:46.607Z,22.10
2018-08-18T01:47:14.840Z,22.10
2018-08-18T01:49:43.098Z,22.10
2018-08-18T01:52:16.721Z,22.10
2018-08-18T01:54:45.601Z,22.10
2018-08-18T01:57:14.582Z,22.10
2018-08-18T01:59:44.009Z,22.10
2018-08-18T02:02:19.979Z,22.10
2018-08-18T02:04:48.544Z,22.10
2018-08-18T02:07:21.063Z,22.10
2018-08-18T02:09:49.396Z,22.10
2018-08-18T02:12:17.591Z,22.10
2018-08-18T02:14:45.918Z,22.10
2018-08-18T02:17:24.223Z,22.10
2018-08-18T02:19:52.692Z,22.10
2018-08-18T02:22:21.731Z,22.10
2018-08-18T02:24:49.949Z,22.10
2018-08-18T02:27:18.181Z,22.10
2018-08-18T02:29:57.699Z,22.10
2018-08-18T02:32:30.571Z,22.10
2018-08-18T02:34:58.930Z,22.00
2018-08-18T02:37:28.020Z,22.00
2018-08-18T02:39:56.282Z,22.00
2018-08-18T02:42:30.833Z,22.00
2018-08-18T02:44:58.999Z,21.90
2018-08-18T02:47:27.209Z,21.90
2018-08-18T02:49:55.963Z,21.90
2018-08-18T02:52:27.168Z,21.90
2018-08-18T02:55:01.153Z,21.90
2018-08-18T02:57:30.506Z,21.90
2018-08-18T03:00:00.218Z,21.90
2018-08-18T03:02:28.477Z,21.90
2018-08-18T03:04:56.650Z,22.00
2018-08-18T03:07:25.426Z,21.90
2018-08-18T03:09:53.950Z,21.90
2018-08-18T03:12:23.870Z,21.90
2018-08-18T03:14:52.086Z,21.90
2018-08-18T03:17:20.330Z,22.00
2018-08-18T03:19:48.597Z,21.90
2018-08-18T03:22:16.821Z,21.90
2018-08-18T03:24:45.022Z,21.90
2018-08-18T03:27:13.267Z,21.90
2018-08-18T03:29:47.671Z,21.80
2018-08-18T03:32:15.913Z,21.80
2018-08-18T03:34:44.131Z,21.80
2018-08-18T03:37:26.034Z,21.80
2018-08-18T03:39:54.321Z,21.80
2018-08-18T03:42:28.263Z,21.70
2018-08-18T03:44:56.865Z,21.80
2018-08-18T03:47:25.072Z,21.70
2018-08-18T03:49:53.306Z,21.60
2018-08-18T03:52:21.525Z,21.60
2018-08-18T03:54:49.728Z,21.70
2018-08-18T03:57:17.945Z,21.60
2018-08-18T03:59:46.191Z,21.70
2018-08-18T04:02:14.422Z,21.70
2018-08-18T04:04:43.139Z,21.60
2018-08-18T04:07:11.538Z,21.70
2018-08-18T04:09:39.919Z,21.70
2018-08-18T04:12:09.523Z,21.70
2018-08-18T04:14:43.934Z,21.70
2018-08-18T04:17:24.253Z,21.60
2018-08-18T04:19:52.473Z,21.60
2018-08-18T04:22:22.085Z,21.60
2018-08-18T04:24:50.483Z,21.60
2018-08-18T04:27:32.205Z,21.60
2018-08-18T04:30:00.426Z,21.60
2018-08-18T04:32:28.654Z,21.60
2018-08-18T04:34:56.882Z,21.60
2018-08-18T04:37:25.071Z,21.60
2018-08-18T04:39:53.329Z,21.60
2018-08-18T04:42:21.522Z,21.60
2018-08-18T04:44:49.763Z,21.70
2018-08-18T04:47:29.217Z,21.70
2018-08-18T04:49:57.443Z,21.70
2018-08-18T04:52:25.651Z,21.70
2018-08-18T04:54:53.991Z,21.70
2018-08-18T04:57:22.230Z,21.70
2018-08-18T04:59:50.746Z,21.70
2018-08-18T05:02:19.610Z,21.70
2018-08-18T05:04:47.910Z,21.70
2018-08-18T05:07:16.148Z,21.60
2018-08-18T05:09:44.329Z,21.50
2018-08-18T05:12:12.831Z,21.60
2018-08-18T05:14:41.053Z,21.60
2018-08-18T05:17:09.297Z,21.50
2018-08-18T05:19:37.573Z,21.50
2018-08-18T05:22:05.779Z,21.50
2018-08-18T05:24:34.055Z,21.40
2018-08-18T05:27:10.355Z,21.40
2018-08-18T05:29:38.694Z,21.30
2018-08-18T05:32:08.349Z,21.20
2018-08-18T05:34:36.650Z,21.10
2018-08-18T05:37:04.972Z,21.00
2018-08-18T05:39:33.235Z,20.90
2018-08-18T05:42:02.067Z,20.70
2018-08-18T05:44:30.385Z,20.70
2018-08-18T05:46:58.609Z,20.70
2018-08-18T05:49:26.897Z,20.70
2018-08-18T05:51:55.121Z,20.60
2018-08-18T05:54:25.970Z,20.70
2018-08-18T05:56:54.206Z,20.70
2018-08-18T05:59:22.448Z,20.70
2018-08-18T06:01:50.717Z,20.70
2018-08-18T06:04:20.258Z,20.70
2018-08-18T06:06:49.206Z,20.70
2018-08-18T06:09:19.254Z,20.70
2018-08-18T06:11:47.703Z,20.80
2018-08-18T06:14:16.503Z,20.80
2018-08-18T06:16:45.412Z,20.80
2018-08-18T06:19:13.690Z,20.70
2018-08-18T06:21:41.964Z,20.70
2018-08-18T06:24:10.446Z,20.80
2018-08-18T06:26:38.669Z,20.70
2018-08-18T06:29:06.941Z,20.70
2018-08-18T06:31:49.507Z,20.60
2018-08-18T06:34:17.785Z,20.70
2018-08-18T06:36:46.011Z,20.70
2018-08-18T06:39:14.227Z,20.60
2018-08-18T06:41:42.560Z,20.60
2018-08-18T06:44:10.650Z,20.60
2018-08-18T06:46:38.889Z,20.60
2018-08-18T06:49:07.114Z,20.60
2018-08-18T06:51:35.322Z,20.70
2018-08-18T06:54:03.678Z,20.70
2018-08-18T06:56:31.926Z,20.70
2018-08-18T06:59:04.407Z,20.80
2018-08-18T07:01:32.653Z,20.80
2018-08-18T07:04:00.865Z,20.80
2018-08-18T07:06:29.041Z,20.70
2018-08-18T07:08:57.257Z,20.80
2018-08-18T07:11:25.479Z,20.80
2018-08-18T07:13:53.681Z,20.80
2018-08-18T07:16:21.938Z,20.90
2018-08-18T07:18:50.288Z,20.90
2018-08-18T07:21:18.485Z,20.90
2018-08-18T07:23:46.711Z,20.90
2018-08-18T07:26:14.975Z,21.00
2018-08-18T07:28:43.340Z,21.10
2018-08-18T07:31:11.401Z,21.10
2018-08-18T07:33:39.663Z,21.10
2018-08-18T07:36:07.910Z,21.20
2018-08-18T07:38:36.126Z,21.20
2018-08-18T07:41:04.356Z,21.30
2018-08-18T07:43:33.971Z,21.40
2018-08-18T07:46:04.593Z,21.30
2018-08-18T07:48:32.829Z,21.30
2018-08-18T07:51:01.100Z,21.30
2018-08-18T07:53:29.441Z,21.30
2018-08-18T07:55:57.570Z,21.40
2018-08-18T07:58:26.000Z,21.40
2018-08-18T08:00:56.665Z,21.40
2018-08-18T08:03:24.913Z,21.50
2018-08-18T08:05:53.305Z,21.50
2018-08-18T08:08:21.562Z,21.50
2018-08-18T08:10:49.766Z,21.60
2018-08-18T08:13:18.005Z,21.60
2018-08-18T08:15:46.255Z,21.50
2018-08-18T08:18:15.560Z,21.60
2018-08-18T08:20:43.705Z,21.60
2018-08-18T08:23:11.913Z,21.50
2018-08-18T08:25:40.217Z,21.50
2018-08-18T08:28:08.453Z,21.50
2018-08-18T08:30:36.765Z,21.50
2018-08-18T08:33:05.040Z,21.50
2018-08-18T08:35:36.614Z,21.60
2018-08-18T08:38:04.990Z,21.50
2018-08-18T08:40:33.232Z,21.60
2018-08-18T08:43:01.421Z,21.60
2018-08-18T08:45:29.645Z,21.70
2018-08-18T08:47:57.869Z,21.70
2018-08-18T08:50:26.112Z,21.80
2018-08-18T08:52:56.404Z,21.80
2018-08-18T08:55:26.798Z,21.90
2018-08-18T08:57:55.107Z,22.00
2018-08-18T09:00:23.333Z,22.00
2018-08-18T09:02:51.587Z,21.80
2018-08-18T09:05:19.999Z,21.90
2018-08-18T09:07:48.364Z,21.90
2018-08-18T09:10:17.107Z,21.90
2018-08-18T09:12:45.350Z,21.90
2018-08-18T09:15:14.473Z,22.00
2018-08-18T09:17:42.702Z,22.10
2018-08-18T09:20:19.931Z,22.20
2018-08-18T09:22:56.965Z,22.30
2018-08-18T09:25:26.883Z,22.40
2018-08-18T09:27:56.311Z,22.50
2018-08-18T09:30:26.499Z,22.50
2018-08-18T09:32:54.874Z,22.60
2018-08-18T09:35:23.194Z,22.70
2018-08-18T09:37:56.072Z,22.80
2018-08-18T09:40:24.406Z,22.90
2018-08-18T09:42:52.643Z,22.90
2018-08-18T09:45:20.990Z,23.00
2018-08-18T09:47:49.218Z,23.10
2018-08-18T09:50:17.416Z,23.10
2018-08-18T09:52:45.678Z,23.20
2018-08-18T09:55:14.078Z,23.20
2018-08-18T09:57:42.327Z,23.30
2018-08-18T10:00:13.695Z,23.30
2018-08-18T10:02:42.169Z,23.30
2018-08-18T10:05:10.746Z,23.40
2018-08-18T10:07:39.085Z,23.40
2018-08-18T10:10:10.170Z,23.40
2018-08-18T10:12:38.570Z,23.50
2018-08-18T10:15:06.791Z,23.50
2018-08-18T10:17:35.102Z,23.50
2018-08-18T10:20:03.412Z,23.60
2018-08-18T10:22:31.644Z,23.70
2018-08-18T10:24:59.872Z,23.80
2018-08-18T10:27:28.413Z,23.90
2018-08-18T10:29:56.634Z,24.00
2018-08-18T10:32:24.825Z,24.10
2018-08-18T10:34:53.058Z,24.30
2018-08-18T10:37:21.271Z,24.40
2018-08-18T10:39:50.864Z,24.50
2018-08-18T10:42:24.334Z,24.70
2018-08-18T10:44:57.959Z,24.80
2018-08-18T10:47:26.142Z,24.90
2018-08-18T10:50:05.875Z,25.00
2018-08-18T10:52:45.630Z,25.00
2018-08-18T10:55:15.000Z,25.00
2018-08-18T10:57:56.111Z,25.20
2018-08-18T11:00:26.399Z,25.30
2018-08-18T11:02:55.820Z,25.40
2018-08-18T11:05:25.457Z,25.50
2018-08-18T11:07:59.874Z,25.70
2018-08-18T11:10:30.011Z,25.70
2018-08-18T11:12:58.243Z,25.80
2018-08-18T11:15:26.804Z,25.90
2018-08-18T11:17:55.337Z,25.70
2018-08-18T11:20:25.710Z,25.90
2018-08-18T11:22:58.520Z,26.00
2018-08-18T11:25:29.244Z,26.10
2018-08-18T11:27:58.155Z,26.10
2018-08-18T11:30:26.855Z,26.00
2018-08-18T11:32:56.752Z,26.00
2018-08-18T11:35:25.095Z,26.00
2018-08-18T11:37:56.699Z,25.90
2018-08-18T11:40:25.883Z,25.80
2018-08-18T11:42:56.918Z,25.70
2018-08-18T11:45:27.126Z,25.70
2018-08-18T11:47:58.898Z,25.60
2018-08-18T11:50:27.941Z,25.70
2018-08-18T11:52:56.343Z,25.90
2018-08-18T11:55:24.663Z,26.00
2018-08-18T11:57:54.547Z,26.00
2018-08-18T12:00:22.898Z,26.00
2018-08-18T12:02:52.023Z,26.10
2018-08-18T12:05:20.311Z,26.20
2018-08-18T12:07:50.021Z,26.30
2018-08-18T12:10:18.405Z,26.40
2018-08-18T12:12:46.722Z,26.50
2018-08-18T12:15:15.015Z,26.60
2018-08-18T12:18:02.093Z,26.80
2018-08-18T12:20:30.419Z,26.90
2018-08-18T12:22:58.569Z,26.90
2018-08-18T12:25:26.894Z,27.00
2018-08-18T12:27:55.219Z,27.10
2018-08-18T12:30:30.334Z,27.20
2018-08-18T12:33:00.081Z,27.40
2018-08-18T12:35:31.630Z,27.40
2018-08-18T12:38:00.254Z,27.40
2018-08-18T12:40:28.942Z,27.40
2018-08-18T12:42:57.221Z,27.50
2018-08-18T12:45:25.465Z,27.40
2018-08-18T12:48:02.369Z,27.60
2018-08-18T12:50:31.326Z,27.80
2018-08-18T12:52:59.628Z,27.70
2018-08-18T12:55:28.101Z,27.80
2018-08-18T12:57:56.397Z,27.70
2018-08-18T13:00:24.741Z,27.80
2018-08-18T13:02:54.383Z,27.70
2018-08-18T13:05:25.465Z,27.80
2018-08-18T13:07:54.117Z,27.80
2018-08-18T13:10:26.322Z,27.60
2018-08-18T13:12:55.378Z,27.50
2018-08-18T13:15:23.644Z,27.40
2018-08-18T13:17:52.378Z,27.40
2018-08-18T13:20:23.215Z,27.40
2018-08-18T13:22:52.109Z,27.50
2018-08-18T13:25:20.454Z,27.60
2018-08-18T13:27:54.193Z,27.70
2018-08-18T13:30:23.570Z,27.60
2018-08-18T13:32:54.552Z,27.60
2018-08-18T13:35:22.829Z,27.50
2018-08-18T13:37:51.546Z,27.30
2018-08-18T13:40:22.439Z,27.00
2018-08-18T13:42:50.739Z,27.10
2018-08-18T13:45:23.483Z,27.20
2018-08-18T13:47:53.960Z,27.40
2018-08-18T13:50:22.186Z,27.70
2018-08-18T13:52:50.451Z,27.80
2018-08-18T13:55:18.693Z,27.90
2018-08-18T13:57:46.956Z,28.00
2018-08-18T14:00:18.857Z,27.90
2018-08-18T14:02:47.208Z,28.00
2018-08-18T14:05:20.050Z,28.00
2018-08-18T14:07:55.693Z,27.90
2018-08-18T14:10:24.070Z,28.00
2018-08-18T14:12:53.001Z,28.00
2018-08-18T14:15:21.196Z,27.80
2018-08-18T14:17:57.952Z,27.60
2018-08-18T14:20:26.498Z,27.50
2018-08-18T14:22:59.011Z,27.50
2018-08-18T14:25:27.131Z,27.50
2018-08-18T14:28:02.510Z,27.60
2018-08-18T14:30:32.601Z,27.70
2018-08-18T14:33:00.826Z,27.60
2018-08-18T14:35:29.088Z,27.60
2018-08-18T14:37:57.352Z,27.60
2018-08-18T14:40:25.571Z,27.80
2018-08-18T14:42:53.780Z,27.60
2018-08-18T14:45:23.534Z,27.60
2018-08-18T14:47:51.846Z,27.80
2018-08-18T14:50:30.094Z,27.80
2018-08-18T14:52:58.882Z,27.90
2018-08-18T14:55:27.086Z,27.90
2018-08-18T14:58:01.333Z,27.90
2018-08-18T15:00:29.586Z,27.90
2018-08-18T15:02:57.850Z,27.90
2018-08-18T15:05:26.123Z,27.70
2018-08-18T15:07:55.414Z,27.70
2018-08-18T15:10:37.174Z,27.60
2018-08-18T15:13:06.227Z,27.60
2018-08-18T15:15:35.181Z,27.80
2018-08-18T15:18:04.919Z,27.80
2018-08-18T15:20:34.745Z,27.80
2018-08-18T15:23:04.332Z,27.80
2018-08-18T15:25:33.622Z,27.90
2018-08-18T15:28:03.426Z,27.80
2018-08-18T15:30:32.153Z,27.80
2018-08-18T15:33:00.553Z,27.80
2018-08-18T15:35:28.792Z,27.80
2018-08-18T15:37:57.903Z,27.80
2018-08-18T15:40:26.936Z,27.80
2018-08-18T15:42:56.324Z,27.80
2018-08-18T15:45:25.475Z,27.80
2018-08-18T15:47:53.916Z,27.80
2018-08-18T15:50:22.539Z,27.80
2018-08-18T15:52:51.185Z,27.70
2018-08-18T15:55:19.500Z,27.70
2018-08-18T15:57:47.689Z,27.60
2018-08-18T16:00:29.216Z,27.60
2018-08-18T16:02:58.403Z,27.60
2018-08-18T16:05:27.466Z,27.50
2018-08-18T16:07:55.738Z,27.60
2018-08-18T16:10:23.948Z,27.50
2018-08-18T16:12:52.201Z,27.50
2018-08-18T16:15:22.111Z,27.50
2018-08-18T16:17:50.853Z,27.50
2018-08-18T16:20:24.122Z,27.50
2018-08-18T16:22:54.848Z,27.50
2018-08-18T16:25:39.688Z,27.40
2018-08-18T16:28:09.163Z,27.30
2018-08-18T16:30:38.067Z,27.20
2018-08-18T16:33:16.234Z,27.20
2018-08-18T16:35:45.260Z,27.10
2018-08-18T16:38:13.459Z,27.00
2018-08-18T16:40:41.937Z,27.00
2018-08-18T16:43:11.483Z,27.00
2018-08-18T16:45:39.829Z,27.00
2018-08-18T16:48:09.414Z,26.90
2018-08-18T16:50:40.968Z,26.90
2018-08-18T16:53:10.452Z,26.90
2018-08-18T16:55:40.360Z,26.90
2018-08-18T16:58:08.612Z,26.90
2018-08-18T17:00:54.454Z,27.00
2018-08-18T17:03:30.309Z,27.00
2018-08-18T17:05:59.558Z,27.00
2018-08-18T17:08:28.147Z,26.90
2018-08-18T17:10:56.379Z,26.90
2018-08-18T17:13:27.841Z,26.90
2018-08-18T17:15:56.238Z,26.90
2018-08-18T17:18:24.700Z,26.80
2018-08-18T17:20:57.693Z,26.80
2018-08-18T17:23:27.308Z,26.80
2018-08-18T17:25:55.503Z,26.70
2018-08-18T17:28:23.718Z,26.70
2018-08-18T17:30:52.765Z,26.70
2018-08-18T17:33:22.706Z,26.70
2018-08-18T17:35:51.270Z,26.70
2018-08-18T17:38:20.102Z,26.60
2018-08-18T17:40:48.325Z,26.60
2018-08-18T17:43:17.146Z,26.50
2018-08-18T17:46:02.179Z,26.50
2018-08-18T17:48:35.385Z,26.60
2018-08-18T17:51:04.204Z,26.50
2018-08-18T17:53:33.382Z,26.50
2018-08-18T17:56:04.550Z,26.50
2018-08-18T17:58:32.771Z,26.40
2018-08-18T18:01:01.955Z,26.40
2018-08-18T18:03:30.305Z,26.40
2018-08-18T18:05:58.527Z,26.40
2018-08-18T18:08:26.751Z,26.30
2018-08-18T18:10:54.991Z,26.30
2018-08-18T18:13:26.375Z,26.30
2018-08-18T18:15:54.655Z,26.30
2018-08-18T18:18:25.699Z,26.20
2018-08-18T18:20:55.073Z,26.10
2018-08-18T18:23:24.400Z,26.10
2018-08-18T18:25:52.696Z,26.10
2018-08-18T18:28:21.014Z,26.00
2018-08-18T18:30:52.775Z,26.00
2018-08-18T18:33:21.083Z,26.00
2018-08-18T18:35:49.942Z,25.90
2018-08-18T18:38:18.217Z,25.90
2018-08-18T18:40:46.683Z,25.90
2018-08-18T18:43:15.149Z,25.80
2018-08-18T18:45:43.479Z,25.80
2018-08-18T18:48:14.178Z,25.70
2018-08-18T18:50:47.493Z,25.60
2018-08-18T18:53:15.953Z,25.60
2018-08-18T18:55:51.818Z,25.60
2018-08-18T18:58:20.082Z,25.50
2018-08-18T19:01:05.510Z,25.40
2018-08-18T19:03:33.783Z,25.40
2018-08-18T19:06:02.035Z,25.30
2018-08-18T19:08:30.311Z,25.20
2018-08-18T19:10:58.530Z,25.20
2018-08-18T19:13:26.952Z,25.20
2018-08-18T19:15:55.395Z,25.20
2018-08-18T19:18:23.651Z,25.10
2018-08-18T19:20:51.897Z,25.10
2018-08-18T19:23:20.910Z,25.00
2018-08-18T19:25:50.273Z,25.00
2018-08-18T19:28:21.768Z,25.00
2018-08-18T19:30:50.017Z,25.00
2018-08-18T19:33:18.670Z,25.00
2018-08-18T19:35:48.145Z,24.90
2018-08-18T19:38:16.965Z,24.90
2018-08-18T19:40:46.363Z,24.90
2018-08-18T19:43:23.162Z,24.80
2018-08-18T19:45:51.862Z,24.70
2018-08-18T19:48:24.765Z,24.70
2018-08-18T19:50:58.442Z,24.50
2018-08-18T19:53:29.633Z,24.50
2018-08-18T19:55:58.913Z,24.40
2018-08-18T19:58:27.854Z,24.30
2018-08-18T20:00:56.126Z,24.30
2018-08-18T20:03:24.955Z,24.20
2018-08-18T20:05:53.191Z,24.20
2018-08-18T20:08:22.752Z,24.10
2018-08-18T20:10:58.959Z,24.00
2018-08-18T20:13:28.967Z,23.90
2018-08-18T20:15:58.729Z,23.90
2018-08-18T20:18:27.094Z,23.90
2018-08-18T20:20:57.732Z,23.80
2018-08-18T20:23:29.055Z,23.80
2018-08-18T20:25:57.303Z,23.70
2018-08-18T20:28:25.527Z,23.60
2018-08-18T20:30:53.759Z,23.60
2018-08-18T20:33:22.033Z,23.60
2018-08-18T20:35:50.581Z,23.60
2018-08-18T20:38:18.840Z,23.60
2018-08-18T20:40:47.458Z,23.50
2018-08-18T20:43:15.791Z,23.50
2018-08-18T20:45:47.651Z,23.50
2018-08-18T20:48:18.436Z,23.40
2018-08-18T20:50:47.017Z,23.40
2018-08-18T20:53:16.182Z,23.40
2018-08-18T20:55:52.265Z,23.40
2018-08-18T20:58:20.490Z,23.40
2018-08-18T21:00:48.757Z,23.40
2018-08-18T21:03:17.046Z,23.40
2018-08-18T21:05:45.272Z,23.30
2018-08-18T21:08:18.958Z,23.30
2018-08-18T21:10:47.625Z,23.20
2018-08-18T21:13:15.914Z,23.10
2018-08-18T21:15:44.181Z,23.10
2018-08-18T21:18:17.440Z,23.00
2018-08-18T21:20:45.828Z,22.90
2018-08-18T21:23:14.009Z,22.80
2018-08-18T21:25:46.035Z,22.80
2018-08-18T21:28:15.300Z,22.70
2018-08-18T21:30:43.561Z,22.60
2018-08-18T21:33:11.932Z,22.60
2018-08-18T21:35:40.717Z,22.50
2018-08-18T21:38:09.145Z,22.50
2018-08-18T21:40:37.397Z,22.50
2018-08-18T21:43:06.214Z,22.40
2018-08-18T21:45:39.862Z,22.40
2018-08-18T21:48:08.106Z,22.40
2018-08-18T21:50:36.325Z,22.30
2018-08-18T21:53:04.563Z,22.20
2018-08-18T21:55:32.816Z,22.20
2018-08-18T21:58:01.066Z,22.20
2018-08-18T22:00:35.436Z,22.10
2018-08-18T22:03:03.681Z,22.20
2018-08-18T22:05:33.119Z,22.10
2018-08-18T22:08:01.408Z,22.10
2018-08-18T22:10:29.667Z,22.10
2018-08-18T22:12:57.862Z,22.10
2018-08-18T22:15:26.159Z,22.10
2018-08-18T22:17:54.776Z,22.00
2018-08-18T22:20:23.700Z,22.00
2018-08-18T22:22:52.005Z,22.00
2018-08-18T22:25:20.546Z,22.00
2018-08-18T22:27:52.143Z,21.90
2018-08-18T22:30:21.438Z,22.00
2018-08-18T22:32:49.682Z,21.90
2018-08-18T22:35:17.919Z,21.90
2018-08-18T22:37:46.141Z,21.90
2018-08-18T22:40:14.395Z,21.80
2018-08-18T22:42:42.631Z,21.90
2018-08-18T22:45:19.507Z,21.90
2018-08-18T22:47:47.774Z,22.00
2018-08-18T22:50:16.086Z,22.10
2018-08-18T22:52:47.047Z,22.10
2018-08-18T22:55:15.508Z,22.20
2018-08-18T22:57:47.994Z,22.30
2018-08-18T23:00:16.240Z,22.40
2018-08-18T23:02:44.770Z,22.40
2018-08-18T23:05:13.066Z,22.50
2018-08-18T23:07:41.384Z,22.50
2018-08-18T23:10:10.350Z,22.50
2018-08-18T23:12:38.587Z,22.60
2018-08-18T23:15:06.897Z,22.60
2018-08-18T23:17:35.310Z,22.50
2018-08-18T23:20:03.536Z,22.50
2018-08-18T23:22:48.653Z,22.50
2018-08-18T23:27:50.589Z,22.50
2018-08-18T23:30:23.197Z,22.60
2018-08-18T23:32:51.418Z,22.60
2018-08-18T23:35:20.832Z,22.50
2018-08-18T23:37:49.108Z,22.50
2018-08-18T23:40:17.425Z,22.50
2018-08-18T23:42:45.678Z,22.50
2018-08-18T23:45:13.943Z,22.50
2018-08-18T23:47:42.269Z,22.50
2018-08-18T23:50:10.542Z,22.40
2018-08-18T23:52:53.271Z,22.50
2018-08-18T23:55:21.886Z,22.40
2018-08-18T23:57:51.710Z,22.40
